Rifton, NY

8:23 PM EDT on March 28, 2015 (GMT -0400)
87 Grist Mill Road | | Change Station
CLOSE
Current Station
Personal Weather Station
Location: Tillson, NY
Elevation: 244 ft
Nearby Weather Stations
Active Advisory: Special Statement Active Notice: Public Information Statement

Elev 244 ft 41.83 °N, 74.06 °W | Updated 1 second ago

Overcast
Overcast
28.5 °F
Feels Like 24 °F
N
4.0
Wind Variable Wind from WSW
Gusts 9.0 mph

Today
High -- | Low -- °F
--% Chance of Precip.
Yesterday
High -- | Low -- °F
Precip. -- in
6:46 AM 7:16 PM
Waxing Gibbous, 66% visible
Pressure 30.01 in
Visibility 6.0 miles
Clouds Overcast 2700 ft
Windchill 24 °F
Dew Point 16 °F
Humidity 59%
Rainfall 0.00 in
Snow Depth Not available.
UV 0 out of 12
Pollen 2.60 out of 12
Air Quality Not available.
Flu Activity Not available.
METAR KPOU 282353Z 32005KT 6SM -SN OVC027 M01/M07 A3001 RMK AO2 SLP160 P0000 60000 T10111067 10011 21011 53039

More Conditions Fewer Conditions

Pressure 30.01 in
Visibility 6.0 miles
Clouds Overcast 2700 ft
Windchill 24 °F
Dew Point 16 °F
Humidity 59%
Rainfall 0.00 in
Snow Depth Not available.
UV 0 out of 12
Pollen 2.60 out of 12
Air Quality Not available.
Flu Activity Not available.
METAR KPOU 282353Z 32005KT 6SM -SN OVC027 M01/M07 A3001 RMK AO2 SLP160 P0000 60000 T10111067 10011 21011 53039

More Conditions Fewer Conditions

10-Day Weather Forecast

Almanac

Astronomy

Mar. 28, 2015 Rise Set
Actual Time
Civil Twilight
Nautical Twilight
Astronomical Twilight
Moon
Length of Visible Light
Length of Day
Tomorrow will be .
, % of the Moon is Illuminated

Today's Extremes

State Highs State Lows

Community

WunderPhotos

Upload Photos

1,809,136 photos uploaded!

WunderBlogs® & News

Nearby

Air Quality

  Air Quality AQ Index Pollutant
Not available.

Snow Depth

Station Depth Elevation

Earthquake Activity

City Distance Mag. Time & Date
Minimum magnitude displayed is 2.5.

Coastal Water Temperatures

Place Temperature

Stations

Nearby Weather Stations

Station Location Temp. Windchill Dew Point Humidity Wind Precip. Elev Updated Type
                   
Special Statement
Statement as of 8:00 PM EDT on March 28, 2015

... Areas of black ice possible overnight...

Snow showers will gradually taper off this evening. Much of the
snow which occurred today melted on contact with most pavement
surfaces. However... as the sun sets... lingering water from melted
snow will likely freeze up as temperatures fall well below the
freezing mark. This will create areas of black ice... especially on
untreated pavement surfaces including roadways... parking
lots... and driveways. Motorists and pedestrians are urged to use
extra caution if driving or walking this evening and overnight.